createdAt,value
2018-11-26T00:01:09.553Z,48.77
2018-11-26T00:03:39.327Z,49.23
2018-11-26T00:06:09.417Z,49.87
2018-11-26T00:08:39.822Z,49.50
2018-11-26T00:11:46.072Z,46.63
2018-11-26T00:14:16.027Z,50.30
2018-11-26T00:16:46.168Z,52.97
2018-11-26T00:19:17.086Z,48.50
2018-11-26T00:21:46.914Z,51.63
2018-11-26T00:24:17.597Z,50.00
2018-11-26T00:26:47.682Z,52.27
2018-11-26T00:29:18.700Z,51.87
2018-11-26T00:31:48.414Z,52.47
2018-11-26T00:34:18.968Z,51.80
2018-11-26T00:36:48.767Z,49.47
2018-11-26T00:39:18.666Z,54.20
2018-11-26T00:41:48.664Z,54.83
2018-11-26T00:44:18.598Z,53.43
2018-11-26T00:46:48.887Z,51.50
2018-11-26T00:49:18.675Z,54.07
2018-11-26T00:51:48.446Z,51.03
2018-11-26T00:54:18.412Z,53.37
2018-11-26T00:56:48.371Z,53.87
2018-11-26T00:59:18.275Z,48.83
2018-11-26T01:01:48.992Z,54.70
2018-11-26T01:04:18.987Z,48.93
2018-11-26T01:06:48.747Z,47.10
2018-11-26T01:09:19.132Z,50.73
2018-11-26T01:11:49.644Z,45.90
2018-11-26T01:14:19.981Z,51.10
2018-11-26T01:16:50.302Z,49.70
2018-11-26T01:19:20.627Z,49.43
2018-11-26T01:21:50.743Z,49.07
2018-11-26T01:24:21.006Z,53.87
2018-11-26T01:26:51.687Z,49.40
2018-11-26T01:29:21.955Z,49.23
2018-11-26T01:31:52.085Z,48.87
2018-11-26T01:34:22.202Z,52.53
2018-11-26T01:36:52.690Z,51.43
2018-11-26T01:39:22.760Z,52.47
2018-11-26T01:41:52.611Z,52.00
2018-11-26T01:44:22.565Z,53.80
2018-11-26T01:46:52.611Z,56.00
2018-11-26T01:49:22.396Z,56.20
2018-11-26T01:51:52.827Z,52.80
2018-11-26T01:54:22.770Z,48.10
2018-11-26T01:56:52.522Z,54.20
2018-11-26T01:59:22.331Z,56.97
2018-11-26T02:01:52.190Z,51.23
2018-11-26T02:04:22.671Z,53.73
2018-11-26T02:06:52.422Z,54.53
2018-11-26T02:09:22.262Z,52.63
2018-11-26T02:11:52.037Z,56.43
2018-11-26T02:14:21.887Z,54.67
2018-11-26T02:16:51.688Z,57.87
2018-11-26T02:19:22.021Z,55.50
2018-11-26T02:21:51.863Z,56.93
2018-11-26T02:24:21.706Z,57.47
2018-11-26T02:26:52.184Z,56.53
2018-11-26T02:29:21.957Z,57.63
2018-11-26T02:31:51.724Z,52.77
2018-11-26T02:34:21.432Z,57.30
2018-11-26T02:36:58.825Z,58.10
2018-11-26T02:39:29.460Z,49.50
2018-11-26T02:41:59.149Z,51.33
2018-11-26T02:44:28.930Z,58.37
2018-11-26T02:46:59.276Z,58.60
2018-11-26T02:49:30.379Z,55.57
2018-11-26T02:52:00.971Z,54.57
2018-11-26T02:54:30.770Z,50.30
2018-11-26T02:57:00.759Z,54.43
2018-11-26T02:59:31.134Z,53.97
2018-11-26T03:02:01.167Z,49.20
2018-11-26T03:04:31.064Z,56.53
2018-11-26T03:07:00.836Z,58.70
2018-11-26T03:09:30.737Z,52.27
2018-11-26T03:12:00.455Z,48.00
2018-11-26T03:14:30.327Z,53.50
2018-11-26T03:17:00.586Z,54.13
2018-11-26T03:19:30.629Z,53.60
2018-11-26T03:22:00.407Z,55.40
2018-11-26T03:24:30.296Z,55.77
2018-11-26T03:27:01.328Z,54.07
2018-11-26T03:29:31.531Z,57.23
2018-11-26T03:32:01.628Z,52.60
2018-11-26T03:34:31.380Z,50.73
2018-11-26T03:37:01.119Z,52.00
2018-11-26T03:39:30.915Z,52.47
2018-11-26T03:42:01.425Z,47.73
2018-11-26T03:44:31.122Z,49.80
2018-11-26T03:47:00.921Z,49.47
2018-11-26T03:49:31.275Z,51.23
2018-11-26T03:52:00.985Z,54.03
2018-11-26T03:54:30.714Z,47.37
2018-11-26T03:57:01.691Z,48.03
2018-11-26T03:59:32.035Z,48.17
2018-11-26T04:02:02.041Z,50.77
2018-11-26T04:04:31.842Z,49.17
2018-11-26T04:07:02.431Z,48.10
2018-11-26T04:09:32.824Z,47.63
2018-11-26T04:12:02.655Z,52.37
2018-11-26T04:14:32.625Z,49.90
2018-11-26T04:17:05.216Z,52.30
2018-11-26T04:19:35.264Z,52.17
2018-11-26T04:22:05.519Z,54.17
2018-11-26T04:24:35.974Z,51.40
2018-11-26T04:27:05.895Z,51.70
2018-11-26T04:29:35.689Z,53.47
2018-11-26T04:32:06.494Z,55.77
2018-11-26T04:34:36.270Z,54.57
2018-11-26T04:37:06.370Z,50.20
2018-11-26T04:39:36.244Z,54.37
2018-11-26T04:42:06.384Z,51.53
2018-11-26T04:44:36.946Z,55.17
2018-11-26T04:47:06.627Z,51.53
2018-11-26T04:49:36.415Z,53.00
2018-11-26T04:52:12.855Z,51.93
2018-11-26T04:54:42.591Z,54.70
2018-11-26T04:57:13.126Z,47.93
2018-11-26T04:59:43.005Z,49.53
2018-11-26T05:02:13.532Z,48.37
2018-11-26T05:04:43.289Z,53.87
2018-11-26T05:07:14.285Z,50.47
2018-11-26T05:09:45.057Z,53.07
2018-11-26T05:12:15.411Z,52.30
2018-11-26T05:14:45.394Z,50.93
2018-11-26T05:17:15.513Z,53.80
2018-11-26T05:19:45.422Z,45.67
2018-11-26T05:22:16.135Z,53.47
2018-11-26T05:24:46.433Z,49.90
2018-11-26T05:27:16.391Z,47.47
2018-11-26T05:29:47.035Z,48.77
2018-11-26T05:32:17.225Z,50.07
2018-11-26T05:34:47.024Z,45.80
2018-11-26T05:37:17.279Z,46.33
2018-11-26T05:39:47.094Z,49.77
2018-11-26T05:42:17.359Z,47.83
2018-11-26T05:44:47.094Z,48.87
2018-11-26T05:47:17.371Z,47.13
2018-11-26T05:49:47.243Z,48.93
2018-11-26T05:52:17.505Z,43.83
2018-11-26T05:54:47.298Z,53.30
2018-11-26T05:57:18.044Z,48.33
2018-11-26T05:59:48.021Z,45.43
2018-11-26T06:02:18.032Z,51.10
2018-11-26T06:04:47.823Z,48.97
2018-11-26T06:07:17.876Z,51.03
2018-11-26T06:09:47.954Z,51.90
2018-11-26T06:12:18.359Z,44.90
2018-11-26T06:14:48.245Z,50.40
2018-11-26T06:17:18.513Z,55.47
2018-11-26T06:19:48.429Z,53.30
2018-11-26T06:22:18.776Z,54.77
2018-11-26T06:24:49.450Z,52.33
2018-11-26T06:27:19.485Z,52.40
2018-11-26T06:29:49.348Z,49.63
2018-11-26T06:32:19.624Z,51.93
2018-11-26T06:34:50.263Z,58.40
2018-11-26T06:37:21.110Z,53.97
2018-11-26T06:39:50.840Z,55.13
2018-11-26T06:42:21.134Z,56.67
2018-11-26T06:44:51.194Z,53.70
2018-11-26T06:47:21.806Z,55.53
2018-11-26T06:49:51.970Z,57.57
2018-11-26T06:52:22.211Z,57.67
2018-11-26T06:54:52.414Z,55.57
2018-11-26T06:57:22.629Z,58.97
2018-11-26T06:59:52.569Z,62.07
2018-11-26T07:02:22.778Z,64.70
2018-11-26T07:04:52.705Z,64.50
2018-11-26T07:07:22.650Z,69.90
2018-11-26T07:09:52.668Z,71.30
2018-11-26T07:12:23.165Z,71.10
2018-11-26T07:14:53.063Z,70.57
2018-11-26T07:17:23.058Z,76.13
2018-11-26T07:19:53.465Z,75.80
2018-11-26T07:22:24.413Z,69.33
2018-11-26T07:24:54.768Z,69.63
2018-11-26T07:27:24.859Z,68.23
2018-11-26T07:29:55.099Z,64.53
2018-11-26T07:32:25.463Z,62.00
2018-11-26T07:34:55.639Z,58.00
2018-11-26T07:37:25.818Z,60.27
2018-11-26T07:39:55.584Z,55.67
2018-11-26T07:42:26.614Z,55.90
2018-11-26T07:44:56.508Z,56.80
2018-11-26T07:47:26.622Z,53.30
2018-11-26T07:49:56.338Z,55.63
2018-11-26T07:52:26.894Z,53.33
2018-11-26T07:54:57.693Z,54.03
2018-11-26T07:57:27.935Z,50.63
2018-11-26T07:59:57.668Z,50.80
2018-11-26T08:02:27.827Z,54.07
2018-11-26T08:04:57.874Z,50.67
2018-11-26T08:07:34.965Z,48.40
2018-11-26T08:10:06.383Z,51.90
2018-11-26T08:12:36.244Z,49.63
2018-11-26T08:15:17.320Z,51.37
2018-11-26T08:17:47.270Z,44.03
2018-11-26T08:20:17.748Z,48.93
2018-11-26T08:22:48.169Z,45.53
2018-11-26T08:25:20.112Z,47.07
2018-11-26T08:27:50.710Z,44.60
2018-11-26T08:30:28.102Z,49.43
2018-11-26T08:32:59.713Z,45.67
2018-11-26T08:35:30.645Z,48.33
2018-11-26T08:38:05.563Z,47.87
2018-11-26T08:40:40.614Z,42.43
2018-11-26T08:43:15.658Z,47.00
2018-11-26T08:45:53.672Z,44.10
2018-11-26T08:48:26.863Z,41.73
2018-11-26T08:50:58.958Z,49.73
2018-11-26T08:53:29.560Z,47.17
2018-11-26T08:55:59.565Z,46.90
2018-11-26T08:58:29.868Z,48.17
2018-11-26T09:01:04.178Z,46.43
2018-11-26T09:03:36.964Z,51.03
2018-11-26T09:06:15.005Z,42.80
2018-11-26T09:08:47.212Z,46.70
2018-11-26T09:11:17.099Z,43.57
2018-11-26T09:13:47.455Z,39.27
2018-11-26T09:16:17.530Z,42.30
2018-11-26T09:18:47.509Z,42.10
2018-11-26T09:21:18.114Z,41.47
2018-11-26T09:23:49.134Z,37.53
2018-11-26T09:26:19.942Z,48.13
2018-11-26T09:28:50.359Z,44.37
2018-11-26T09:31:20.809Z,41.47
2018-11-26T09:33:51.344Z,40.17
2018-11-26T09:36:22.094Z,43.63
2018-11-26T09:38:52.174Z,47.07
2018-11-26T09:41:22.139Z,42.37
2018-11-26T09:43:52.177Z,47.67
2018-11-26T09:46:22.142Z,45.50
2018-11-26T09:48:51.941Z,52.83
2018-11-26T09:51:21.869Z,51.57
2018-11-26T09:53:51.781Z,45.60
2018-11-26T09:56:21.790Z,45.97
2018-11-26T09:58:51.738Z,52.60
2018-11-26T10:01:22.153Z,47.67
2018-11-26T10:03:52.188Z,50.67
2018-11-26T10:06:22.014Z,48.37
2018-11-26T10:08:51.981Z,48.03
2018-11-26T10:11:21.862Z,49.83
2018-11-26T10:13:51.869Z,49.90
2018-11-26T10:16:22.058Z,50.23
2018-11-26T10:18:51.868Z,51.97
2018-11-26T10:21:21.728Z,49.00
2018-11-26T10:23:51.583Z,51.53
2018-11-26T10:26:22.116Z,54.33
2018-11-26T10:28:52.283Z,50.87
2018-11-26T10:31:22.534Z,53.37
2018-11-26T10:33:52.313Z,52.27
2018-11-26T10:36:22.904Z,48.20
2018-11-26T10:38:53.081Z,51.17
2018-11-26T10:41:23.756Z,52.53
2018-11-26T10:43:53.688Z,53.80
2018-11-26T10:46:24.853Z,49.97
2018-11-26T10:48:54.717Z,50.67
2018-11-26T10:51:24.643Z,53.40
2018-11-26T10:53:55.396Z,51.73
2018-11-26T10:56:25.408Z,50.93
2018-11-26T10:58:55.358Z,46.20
2018-11-26T11:01:30.708Z,49.80
2018-11-26T11:04:00.682Z,49.97
2018-11-26T11:06:30.479Z,46.27
2018-11-26T11:09:00.388Z,47.17
2018-11-26T11:11:30.191Z,46.43
2018-11-26T11:14:00.798Z,46.77
2018-11-26T11:16:30.954Z,44.10
2018-11-26T11:19:01.090Z,41.50
2018-11-26T11:21:30.962Z,42.23
2018-11-26T11:24:00.837Z,51.30
2018-11-26T11:26:30.647Z,45.97
2018-11-26T11:29:01.071Z,46.17
2018-11-26T11:31:31.115Z,42.07
2018-11-26T11:34:01.154Z,41.90
2018-11-26T11:36:31.918Z,45.57
2018-11-26T11:39:01.710Z,52.13
2018-11-26T11:41:34.435Z,47.40
2018-11-26T11:44:01.315Z,43.07
2018-11-26T11:46:31.142Z,43.60
2018-11-26T11:49:01.125Z,41.93
2018-11-26T11:51:31.012Z,43.93
2018-11-26T11:54:02.250Z,42.00
2018-11-26T11:56:32.114Z,41.23
2018-11-26T11:59:01.909Z,41.50
2018-11-26T12:01:32.589Z,42.00
2018-11-26T12:04:02.514Z,41.80
2018-11-26T12:06:33.194Z,45.13
2018-11-26T12:09:03.060Z,44.77
2018-11-26T12:11:32.909Z,43.17
2018-11-26T12:14:02.661Z,43.37
2018-11-26T12:16:32.679Z,44.63
2018-11-26T12:19:02.766Z,46.40
2018-11-26T12:21:33.134Z,42.87
2018-11-26T12:24:03.105Z,42.20
2018-11-26T12:26:32.822Z,44.93
2018-11-26T12:29:02.649Z,41.53
2018-11-26T12:31:32.534Z,40.93
2018-11-26T12:34:03.279Z,41.83
2018-11-26T12:36:33.220Z,40.90
2018-11-26T12:39:03.185Z,38.97
2018-11-26T12:41:32.896Z,40.03
2018-11-26T12:44:02.941Z,40.10
2018-11-26T12:46:33.076Z,39.27
2018-11-26T12:49:03.682Z,42.23
2018-11-26T12:51:34.421Z,43.77
2018-11-26T12:54:04.206Z,37.97
2018-11-26T12:56:34.030Z,42.97
2018-11-26T12:59:04.182Z,38.00
2018-11-26T13:01:34.215Z,39.10
2018-11-26T13:04:04.566Z,38.63
2018-11-26T13:06:34.645Z,38.20
2018-11-26T13:09:05.731Z,39.57
2018-11-26T13:11:35.576Z,39.10
2018-11-26T13:14:05.436Z,38.70
2018-11-26T13:16:36.723Z,38.17
2018-11-26T13:19:06.784Z,38.50
2018-11-26T13:21:36.804Z,40.83
2018-11-26T13:24:07.289Z,34.80
2018-11-26T13:26:37.201Z,37.50
2018-11-26T13:29:08.510Z,37.33
2018-11-26T13:31:38.622Z,39.77
2018-11-26T13:34:09.061Z,37.93
2018-11-26T13:36:39.128Z,36.87
2018-11-26T13:39:10.322Z,39.17
2018-11-26T13:41:40.442Z,36.33
2018-11-26T13:44:10.559Z,33.37
2018-11-26T13:46:40.826Z,29.53
2018-11-26T13:49:11.027Z,30.90
2018-11-26T13:51:41.225Z,26.10
2018-11-26T13:54:11.332Z,28.93
2018-11-26T13:56:41.631Z,30.57
2018-11-26T13:59:11.801Z,29.53
2018-11-26T14:01:41.831Z,31.07
2018-11-26T14:04:12.725Z,30.60
2018-11-26T14:06:42.875Z,30.27
2018-11-26T14:09:13.670Z,29.87
2018-11-26T14:11:44.609Z,31.47
2018-11-26T14:14:14.683Z,31.17
2018-11-26T14:16:45.187Z,31.87
2018-11-26T14:19:15.354Z,31.57
2018-11-26T14:21:45.412Z,30.30
2018-11-26T14:24:15.861Z,28.63
2018-11-26T14:26:46.492Z,29.00
2018-11-26T14:29:16.360Z,26.13
2018-11-26T14:31:47.594Z,29.00
2018-11-26T14:34:17.537Z,27.40
2018-11-26T14:36:47.611Z,25.10
2018-11-26T14:39:17.867Z,26.90
2018-11-26T14:41:47.807Z,25.13
2018-11-26T14:44:18.500Z,26.60
2018-11-26T14:46:48.374Z,23.87
2018-11-26T14:49:18.545Z,25.70
2018-11-26T14:51:48.728Z,22.30
2018-11-26T14:54:18.706Z,22.87
2018-11-26T14:56:49.132Z,25.73
2018-11-26T14:59:19.166Z,27.17
2018-11-26T15:01:49.803Z,24.90
2018-11-26T15:04:19.919Z,27.20
2018-11-26T15:06:50.301Z,23.37
2018-11-26T15:09:20.289Z,28.60
2018-11-26T15:11:51.197Z,25.97
2018-11-26T15:14:21.775Z,23.37
2018-11-26T15:16:51.610Z,24.77
2018-11-26T15:19:22.141Z,24.77
2018-11-26T15:21:53.317Z,25.97
2018-11-26T15:24:23.405Z,26.33
2018-11-26T15:26:53.458Z,24.43
2018-11-26T15:29:23.829Z,24.33
2018-11-26T15:31:53.714Z,27.23
2018-11-26T15:34:23.610Z,22.93
2018-11-26T15:36:53.596Z,28.97
2018-11-26T15:39:23.508Z,25.37
2018-11-26T15:41:53.349Z,26.03
2018-11-26T15:44:23.320Z,28.60
2018-11-26T15:46:53.762Z,29.20
2018-11-26T15:49:24.483Z,28.90
2018-11-26T15:51:54.346Z,29.27
2018-11-26T15:54:24.719Z,32.13
2018-11-26T15:56:54.948Z,35.30
2018-11-26T15:59:24.874Z,31.93
2018-11-26T16:01:55.109Z,32.57
2018-11-26T16:04:25.099Z,36.80
2018-11-26T16:06:54.920Z,32.63
2018-11-26T16:09:24.731Z,30.53
2018-11-26T16:11:55.592Z,35.83
2018-11-26T16:14:25.474Z,32.77
2018-11-26T16:16:55.449Z,36.77
2018-11-26T16:19:25.270Z,35.80
2018-11-26T16:21:55.154Z,35.43
2018-11-26T16:24:25.052Z,39.37
2018-11-26T16:26:55.186Z,40.30
2018-11-26T16:29:25.123Z,37.67
2018-11-26T16:31:55.165Z,34.10
2018-11-26T16:34:25.064Z,34.90
2018-11-26T16:36:55.729Z,34.43
2018-11-26T16:39:25.581Z,33.93
2018-11-26T16:41:55.533Z,34.07
2018-11-26T16:44:25.573Z,34.70
2018-11-26T16:46:56.191Z,35.03
2018-11-26T16:49:26.082Z,35.60
2018-11-26T16:51:57.195Z,34.33
2018-11-26T16:54:27.415Z,32.83
2018-11-26T16:56:57.373Z,33.23
2018-11-26T16:59:27.284Z,33.00
2018-11-26T17:01:57.372Z,35.97
2018-11-26T17:04:27.287Z,34.90
2018-11-26T17:06:57.276Z,35.87
2018-11-26T17:09:27.207Z,33.43
2018-11-26T17:11:57.853Z,38.17
2018-11-26T17:14:27.949Z,37.63
2018-11-26T17:16:58.379Z,36.37
2018-11-26T17:19:29.014Z,38.63
2018-11-26T17:21:58.889Z,39.30
2018-11-26T17:24:28.920Z,34.10
2018-11-26T17:26:59.149Z,37.53
2018-11-26T17:29:29.127Z,39.27
2018-11-26T17:31:59.075Z,34.00
2018-11-26T17:34:29.005Z,37.43
2018-11-26T17:36:59.128Z,37.03
2018-11-26T17:39:29.119Z,35.33
2018-11-26T17:41:59.069Z,33.83
2018-11-26T17:44:29.038Z,34.77
2018-11-26T17:46:59.756Z,34.03
2018-11-26T17:49:30.805Z,34.30
2018-11-26T17:52:01.971Z,36.17
2018-11-26T17:54:32.015Z,34.10
2018-11-26T17:57:02.428Z,34.63
2018-11-26T17:59:32.426Z,33.43
2018-11-26T18:02:03.367Z,34.33
2018-11-26T18:04:33.341Z,32.17
2018-11-26T18:07:03.963Z,32.33
2018-11-26T18:09:33.990Z,32.57
2018-11-26T18:12:04.380Z,35.03
2018-11-26T18:14:34.804Z,35.63
2018-11-26T18:17:07.752Z,33.83
2018-11-26T18:19:37.615Z,35.63
2018-11-26T18:22:08.154Z,38.03
2018-11-26T18:24:38.280Z,36.07
2018-11-26T18:27:10.295Z,38.17
2018-11-26T18:29:40.633Z,39.63
2018-11-26T18:32:10.563Z,41.40
2018-11-26T18:34:41.203Z,36.70
2018-11-26T18:37:11.174Z,40.80
2018-11-26T18:39:41.096Z,38.20
2018-11-26T18:42:11.939Z,38.00
2018-11-26T18:44:41.875Z,36.57
2018-11-26T18:47:11.813Z,38.13
2018-11-26T18:49:41.687Z,37.47
2018-11-26T18:52:11.726Z,39.67
2018-11-26T18:54:41.696Z,41.10
2018-11-26T18:57:12.028Z,41.70
2018-11-26T18:59:43.154Z,39.37
2018-11-26T19:02:13.546Z,38.07
2018-11-26T19:04:44.302Z,38.53
2018-11-26T19:07:14.532Z,38.80
2018-11-26T19:09:44.960Z,38.93
2018-11-26T19:12:15.316Z,39.50
2018-11-26T19:14:45.395Z,40.13
2018-11-26T19:17:16.708Z,39.83
2018-11-26T19:19:47.672Z,42.67
2018-11-26T19:22:17.914Z,42.77
2018-11-26T19:24:47.898Z,36.90
2018-11-26T19:27:18.168Z,38.13
2018-11-26T19:29:48.083Z,39.43
2018-11-26T19:32:18.259Z,41.53
2018-11-26T19:34:48.747Z,40.23
2018-11-26T19:37:19.183Z,42.10
2018-11-26T19:39:50.214Z,38.47
2018-11-26T19:42:20.746Z,43.00
2018-11-26T19:44:50.661Z,41.67
2018-11-26T19:47:21.088Z,45.63
2018-11-26T19:49:51.152Z,43.67
2018-11-26T19:52:21.406Z,43.83
2018-11-26T19:54:51.647Z,45.70
2018-11-26T19:57:21.872Z,43.27
2018-11-26T19:59:51.841Z,45.33
2018-11-26T20:02:22.136Z,47.40
2018-11-26T20:04:59.503Z,47.33
2018-11-26T20:07:30.076Z,44.90
2018-11-26T20:10:00.202Z,46.50
2018-11-26T20:12:30.111Z,39.67
2018-11-26T20:15:00.776Z,46.10
2018-11-26T20:17:30.741Z,45.27
2018-11-26T20:20:01.241Z,47.17
2018-11-26T20:22:31.201Z,45.57
2018-11-26T20:25:01.608Z,42.30
2018-11-26T20:27:32.981Z,46.37
2018-11-26T20:30:02.958Z,45.17
2018-11-26T20:32:33.063Z,49.30
2018-11-26T20:35:02.975Z,49.17
2018-11-26T20:37:33.432Z,46.73
2018-11-26T20:40:03.342Z,47.53
2018-11-26T20:42:33.203Z,51.57
2018-11-26T20:45:03.057Z,48.10
2018-11-26T20:47:32.893Z,48.13
2018-11-26T20:50:02.659Z,47.70
2018-11-26T20:52:32.667Z,50.93
2018-11-26T20:55:02.600Z,48.70
2018-11-26T20:57:32.389Z,47.07
2018-11-26T21:00:02.336Z,50.63
2018-11-26T21:02:32.343Z,51.90
2018-11-26T21:05:02.541Z,51.23
2018-11-26T21:07:32.792Z,48.07
2018-11-26T21:10:03.077Z,51.23
2018-11-26T21:12:33.522Z,50.37
2018-11-26T21:15:03.624Z,54.63
2018-11-26T21:17:33.817Z,50.63
2018-11-26T21:20:04.180Z,55.13
2018-11-26T21:22:34.382Z,52.70
2018-11-26T21:25:04.671Z,47.50
2018-11-26T21:27:35.643Z,53.03
2018-11-26T21:30:07.667Z,49.97
2018-11-26T21:32:37.673Z,48.97
2018-11-26T21:35:09.857Z,48.07
2018-11-26T21:37:40.661Z,50.00
2018-11-26T21:40:13.311Z,51.07
2018-11-26T21:42:43.263Z,49.30
2018-11-26T21:45:16.677Z,49.20
2018-11-26T21:47:46.588Z,45.87
2018-11-26T21:50:17.191Z,56.40
2018-11-26T21:52:47.153Z,50.87
2018-11-26T21:55:25.037Z,50.57
2018-11-26T21:57:55.688Z,50.37
2018-11-26T22:00:28.041Z,45.30
2018-11-26T22:02:58.841Z,47.50
2018-11-26T22:05:30.646Z,46.60
2018-11-26T22:08:01.030Z,46.07
2018-11-26T22:10:31.514Z,46.87
2018-11-26T22:13:01.629Z,45.53
2018-11-26T22:15:32.622Z,43.17
2018-11-26T22:18:02.693Z,46.67
2018-11-26T22:20:35.075Z,45.53
2018-11-26T22:23:06.455Z,46.27
2018-11-26T22:25:37.193Z,42.73
2018-11-26T22:28:10.568Z,43.40
2018-11-26T22:30:41.520Z,43.33
2018-11-26T22:33:11.621Z,43.70
2018-11-26T22:35:42.201Z,41.07
2018-11-26T22:38:12.682Z,42.73
2018-11-26T22:40:42.691Z,40.67
2018-11-26T22:43:12.552Z,41.27
2018-11-26T22:45:42.554Z,43.90
2018-11-26T22:48:14.123Z,40.37
2018-11-26T22:50:45.682Z,39.53
2018-11-26T22:53:15.841Z,41.77
2018-11-26T22:55:46.240Z,43.37
2018-11-26T22:58:16.814Z,38.93
2018-11-26T23:00:53.602Z,40.70
2018-11-26T23:03:25.966Z,40.77
2018-11-26T23:05:57.016Z,43.43
2018-11-26T23:08:27.208Z,38.23
2018-11-26T23:10:57.645Z,43.70
2018-11-26T23:13:34.091Z,37.13
2018-11-26T23:16:04.769Z,40.90
2018-11-26T23:18:35.206Z,36.83
2018-11-26T23:21:05.817Z,39.73
2018-11-26T23:23:39.104Z,39.00
2018-11-26T23:26:09.921Z,32.57
2018-11-26T23:28:40.606Z,33.43
2018-11-26T23:31:10.972Z,33.60
2018-11-26T23:33:40.876Z,31.07
2018-11-26T23:36:12.075Z,35.33
2018-11-26T23:38:42.806Z,33.33
2018-11-26T23:41:12.729Z,33.73
2018-11-26T23:43:42.599Z,34.90
2018-11-26T23:46:13.116Z,33.63
2018-11-26T23:48:43.900Z,33.77
2018-11-26T23:51:13.920Z,34.67
2018-11-26T23:53:44.472Z,35.67
2018-11-26T23:56:14.505Z,33.20
2018-11-26T23:58:45.090Z,33.37
